This is the latest recevied weather packets stored in our database for station/object K1WJY. If no packets are shown the sender has not sent any weather packets the latest 10 day(s).
| Time | Temp. | Humidity | Pressure | Rain* | Wind** | Luminosity | Snow |
|---|---|---|---|---|---|---|---|
| 1777890018 | 3.89° C | 84% | 1009.6 hPa | 0 mm | - | 33 W/m² | - |
| 1777889716 | 3.33° C | 86% | 1009.5 hPa | 0 mm | - | 31 W/m² | - |
| 1777889414 | 2.78° C | 87% | 1009.6 hPa | 0 mm | - | 29 W/m² | - |
| 1777889111 | 2.22° C | 90% | 1009.7 hPa | 0 mm | - | 26 W/m² | - |
| 1777888809 | 1.67° C | 92% | 1009.4 hPa | 0 mm | - | 23 W/m² | - |
| 1777888504 | 1.67° C | 95% | 1009.6 hPa | 0 mm | - | 19 W/m² | - |
| 1777888200 | 0.56° C | 96% | 1009.6 hPa | 0 mm | - | 15 W/m² | - |
| 1777887898 | 0.56° C | 96% | 1009.4 hPa | 0 mm | - | 12 W/m² | - |
| 1777887595 | 1.11° C | 96% | 1009.2 hPa | 0 mm | - | 10 W/m² | - |
| 1777887290 | 0.56° C | 98% | 1009.2 hPa | 0 mm | - | 7 W/m² | - |
| 1777886986 | 0.56° C | 98% | 1009.2 hPa | 0 mm | - | 5 W/m² | - |
| 1777886682 | 0° C | 98% | 1009.2 hPa | 0 mm | - | 3 W/m² | - |
| 1777886380 | 0° C | 98% | 1009.3 hPa | 0 mm | - | 0 W/m² | - |
| 1777886078 | 0° C | 97% | 1009.3 hPa | 0 mm | - | 0 W/m² | - |
| 1777885775 | 0.56° C | 95% | 1008.8 hPa | 0 mm | - | 0 W/m² | - |
| 1777885473 | 0.56° C | 94% | 1009.1 hPa | 0 mm | - | 0 W/m² | - |
| 1777885172 | 1.11° C | 93% | 1009.2 hPa | 0 mm | - | 0 W/m² | - |
| 1777884868 | 1.67° C | 91% | 1008.9 hPa | 0 mm | - | 0 W/m² | - |
| 1777884565 | 1.67° C | 90% | 1009.3 hPa | 0 mm | - | 0 W/m² | - |
| 1777884262 | 2.22° C | 88% | 1008.9 hPa | 0 mm | - | 0 W/m² | - |
| 1777883957 | 2.22° C | 89% | 1009 hPa | 0 mm | - | 0 W/m² | - |
| 1777883655 | 2.22° C | 88% | 1008.9 hPa | 0 mm | - | 0 W/m² | - |
| 1777883350 | 1.67° C | 90% | 1008.8 hPa | 0 mm | - | 0 W/m² | - |
| 1777883047 | 2.22° C | 89% | 1008.8 hPa | 0 mm | - | 0 W/m² | - |
| 1777882744 | 2.22° C | 88% | 1008.7 hPa | 0 mm | - | 0 W/m² | - |
* Rain latest hour (hover to see other rain measurements)
** Current wind speed in m/s (hover to see current wind gust speed)